sensor_id;sensor_type;location;lat;lon;timestamp;P1;durP1;ratioP1;P2;durP2;ratioP2
35675;SDS011;21790;42.668;23.298;2022-09-09T00:00:37;21.27;;;9.15;;
35675;SDS011;21790;42.668;23.298;2022-09-09T00:03:11;18.20;;;9.68;;
35675;SDS011;21790;42.668;23.298;2022-09-09T00:08:09;16.38;;;9.15;;
35675;SDS011;21790;42.668;23.298;2022-09-09T00:10:56;17.67;;;8.40;;
35675;SDS011;21790;42.668;23.298;2022-09-09T00:13:40;15.32;;;8.93;;
35675;SDS011;21790;42.668;23.298;2022-09-09T00:16:19;15.93;;;9.25;;
35675;SDS011;21790;42.668;23.298;2022-09-09T00:21:53;16.13;;;8.82;;
35675;SDS011;21790;42.668;23.298;2022-09-09T00:24:32;16.95;;;8.45;;
35675;SDS011;21790;42.668;23.298;2022-09-09T00:27:18;16.20;;;8.40;;
35675;SDS011;21790;42.668;23.298;2022-09-09T00:29:56;14.27;;;7.68;;
35675;SDS011;21790;42.668;23.298;2022-09-09T00:33:22;17.05;;;9.35;;
35675;SDS011;21790;42.668;23.298;2022-09-09T00:35:47;15.85;;;8.23;;
35675;SDS011;21790;42.668;23.298;2022-09-09T00:40:56;12.77;;;7.80;;
35675;SDS011;21790;42.668;23.298;2022-09-09T00:43:31;16.80;;;8.13;;
35675;SDS011;21790;42.668;23.298;2022-09-09T00:51:48;12.77;;;6.72;;
35675;SDS011;21790;42.668;23.298;2022-09-09T00:59:43;11.52;;;7.95;;
35675;SDS011;21790;42.668;23.298;2022-09-09T01:02:18;12.82;;;7.43;;
35675;SDS011;21790;42.668;23.298;2022-09-09T01:04:54;12.27;;;8.32;;
35675;SDS011;21790;42.668;23.298;2022-09-09T01:07:26;15.80;;;7.68;;
35675;SDS011;21790;42.668;23.298;2022-09-09T01:09:58;14.52;;;8.57;;
35675;SDS011;21790;42.668;23.298;2022-09-09T01:14:54;12.85;;;7.13;;
35675;SDS011;21790;42.668;23.298;2022-09-09T01:17:30;16.40;;;8.20;;
35675;SDS011;21790;42.668;23.298;2022-09-09T01:20:23;12.35;;;8.02;;
35675;SDS011;21790;42.668;23.298;2022-09-09T01:23:34;9.57;;;7.03;;
35675;SDS011;21790;42.668;23.298;2022-09-09T01:28:28;16.33;;;7.53;;
35675;SDS011;21790;42.668;23.298;2022-09-09T01:30:54;16.08;;;8.23;;
35675;SDS011;21790;42.668;23.298;2022-09-09T01:33:22;14.13;;;8.00;;
35675;SDS011;21790;42.668;23.298;2022-09-09T01:35:58;17.27;;;8.07;;
35675;SDS011;21790;42.668;23.298;2022-09-09T01:38:29;19.38;;;9.02;;
35675;SDS011;21790;42.668;23.298;2022-09-09T01:40:58;16.25;;;7.85;;
35675;SDS011;21790;42.668;23.298;2022-09-09T01:43:25;14.18;;;7.78;;
35675;SDS011;21790;42.668;23.298;2022-09-09T01:45:56;14.20;;;7.95;;
35675;SDS011;21790;42.668;23.298;2022-09-09T01:50:49;12.93;;;7.43;;
35675;SDS011;21790;42.668;23.298;2022-09-09T01:53:15;15.27;;;8.07;;
35675;SDS011;21790;42.668;23.298;2022-09-09T02:01:59;17.85;;;8.48;;
35675;SDS011;21790;42.668;23.298;2022-09-09T02:04:41;17.27;;;7.88;;
35675;SDS011;21790;42.668;23.298;2022-09-09T02:10:20;13.65;;;8.25;;
35675;SDS011;21790;42.668;23.298;2022-09-09T02:12:57;15.95;;;8.07;;
35675;SDS011;21790;42.668;23.298;2022-09-09T02:15:30;13.15;;;8.18;;
35675;SDS011;21790;42.668;23.298;2022-09-09T02:18:00;14.55;;;6.80;;
35675;SDS011;21790;42.668;23.298;2022-09-09T02:20:31;16.63;;;8.15;;
35675;SDS011;21790;42.668;23.298;2022-09-09T02:22:58;12.40;;;8.25;;
35675;SDS011;21790;42.668;23.298;2022-09-09T02:25:26;14.48;;;8.75;;
35675;SDS011;21790;42.668;23.298;2022-09-09T02:27:54;13.48;;;8.02;;
35675;SDS011;21790;42.668;23.298;2022-09-09T02:30:23;17.27;;;7.57;;
35675;SDS011;21790;42.668;23.298;2022-09-09T02:32:49;13.85;;;8.55;;
35675;SDS011;21790;42.668;23.298;2022-09-09T02:35:19;12.02;;;8.13;;
35675;SDS011;21790;42.668;23.298;2022-09-09T02:37:47;10.77;;;7.57;;
35675;SDS011;21790;42.668;23.298;2022-09-09T02:40:15;21.95;;;8.23;;
35675;SDS011;21790;42.668;23.298;2022-09-09T02:42:47;12.77;;;7.97;;
35675;SDS011;21790;42.668;23.298;2022-09-09T02:45:15;12.73;;;7.82;;
35675;SDS011;21790;42.668;23.298;2022-09-09T02:47:51;10.95;;;7.45;;
35675;SDS011;21790;42.668;23.298;2022-09-09T02:50:26;17.25;;;8.65;;
35675;SDS011;21790;42.668;23.298;2022-09-09T02:58:05;13.38;;;8.57;;
35675;SDS011;21790;42.668;23.298;2022-09-09T03:00:33;12.88;;;8.55;;
35675;SDS011;21790;42.668;23.298;2022-09-09T03:03:01;14.30;;;8.32;;
35675;SDS011;21790;42.668;23.298;2022-09-09T03:05:31;12.60;;;8.23;;
35675;SDS011;21790;42.668;23.298;2022-09-09T03:07:57;14.25;;;8.45;;
35675;SDS011;21790;42.668;23.298;2022-09-09T03:10:23;11.55;;;7.63;;
35675;SDS011;21790;42.668;23.298;2022-09-09T03:12:48;13.35;;;8.40;;
35675;SDS011;21790;42.668;23.298;2022-09-09T03:15:14;13.75;;;7.57;;
35675;SDS011;21790;42.668;23.298;2022-09-09T03:17:40;12.73;;;8.60;;
35675;SDS011;21790;42.668;23.298;2022-09-09T03:20:06;11.50;;;8.73;;
35675;SDS011;21790;42.668;23.298;2022-09-09T03:22:33;14.30;;;8.80;;
35675;SDS011;21790;42.668;23.298;2022-09-09T03:24:58;17.95;;;8.15;;
35675;SDS011;21790;42.668;23.298;2022-09-09T03:27:24;17.88;;;8.98;;
35675;SDS011;21790;42.668;23.298;2022-09-09T03:29:50;20.65;;;10.10;;
35675;SDS011;21790;42.668;23.298;2022-09-09T03:32:16;15.15;;;8.07;;
35675;SDS011;21790;42.668;23.298;2022-09-09T03:34:43;17.63;;;8.90;;
35675;SDS011;21790;42.668;23.298;2022-09-09T03:37:08;23.73;;;8.95;;
35675;SDS011;21790;42.668;23.298;2022-09-09T03:39:34;16.70;;;8.02;;
35675;SDS011;21790;42.668;23.298;2022-09-09T03:42:00;13.18;;;7.95;;
35675;SDS011;21790;42.668;23.298;2022-09-09T03:44:29;12.27;;;8.63;;
35675;SDS011;21790;42.668;23.298;2022-09-09T03:46:55;15.88;;;9.20;;
35675;SDS011;21790;42.668;23.298;2022-09-09T03:49:20;18.95;;;8.15;;
35675;SDS011;21790;42.668;23.298;2022-09-09T03:51:47;13.23;;;8.50;;
35675;SDS011;21790;42.668;23.298;2022-09-09T03:54:12;20.85;;;8.77;;
35675;SDS011;21790;42.668;23.298;2022-09-09T03:59:06;16.77;;;9.18;;
35675;SDS011;21790;42.668;23.298;2022-09-09T04:01:33;14.35;;;8.38;;
35675;SDS011;21790;42.668;23.298;2022-09-09T04:03:59;19.20;;;8.55;;
35675;SDS011;21790;42.668;23.298;2022-09-09T04:06:26;21.60;;;9.10;;
35675;SDS011;21790;42.668;23.298;2022-09-09T04:08:51;19.42;;;8.65;;
35675;SDS011;21790;42.668;23.298;2022-09-09T04:11:17;13.80;;;8.90;;
35675;SDS011;21790;42.668;23.298;2022-09-09T04:13:43;14.70;;;8.48;;
35675;SDS011;21790;42.668;23.298;2022-09-09T04:16:09;16.73;;;9.80;;
35675;SDS011;21790;42.668;23.298;2022-09-09T04:18:36;16.63;;;8.43;;
35675;SDS011;21790;42.668;23.298;2022-09-09T04:21:02;15.07;;;9.05;;
35675;SDS011;21790;42.668;23.298;2022-09-09T04:23:29;16.02;;;9.13;;
35675;SDS011;21790;42.668;23.298;2022-09-09T04:25:56;16.95;;;9.07;;
35675;SDS011;21790;42.668;23.298;2022-09-09T04:28:23;17.50;;;9.00;;
35675;SDS011;21790;42.668;23.298;2022-09-09T04:30:50;14.57;;;8.82;;
35675;SDS011;21790;42.668;23.298;2022-09-09T04:33:17;19.90;;;10.00;;
35675;SDS011;21790;42.668;23.298;2022-09-09T04:35:44;16.15;;;9.77;;
35675;SDS011;21790;42.668;23.298;2022-09-09T04:38:11;15.73;;;9.10;;
35675;SDS011;21790;42.668;23.298;2022-09-09T04:40:37;15.75;;;8.73;;
35675;SDS011;21790;42.668;23.298;2022-09-09T04:43:07;17.60;;;9.07;;
35675;SDS011;21790;42.668;23.298;2022-09-09T04:45:33;15.43;;;9.10;;
35675;SDS011;21790;42.668;23.298;2022-09-09T04:47:58;16.10;;;8.98;;
35675;SDS011;21790;42.668;23.298;2022-09-09T04:50:24;17.98;;;9.23;;
35675;SDS011;21790;42.668;23.298;2022-09-09T04:52:50;25.42;;;10.55;;
35675;SDS011;21790;42.668;23.298;2022-09-09T04:55:16;15.65;;;9.90;;
35675;SDS011;21790;42.668;23.298;2022-09-09T04:57:41;18.20;;;9.75;;
35675;SDS011;21790;42.668;23.298;2022-09-09T05:00:07;21.13;;;9.48;;
35675;SDS011;21790;42.668;23.298;2022-09-09T05:02:38;24.20;;;10.10;;
35675;SDS011;21790;42.668;23.298;2022-09-09T05:05:04;21.67;;;9.38;;
35675;SDS011;21790;42.668;23.298;2022-09-09T05:07:30;21.55;;;10.35;;
35675;SDS011;21790;42.668;23.298;2022-09-09T05:09:56;18.52;;;9.70;;
35675;SDS011;21790;42.668;23.298;2022-09-09T05:12:22;16.08;;;8.90;;
35675;SDS011;21790;42.668;23.298;2022-09-09T05:14:50;28.17;;;9.55;;
35675;SDS011;21790;42.668;23.298;2022-09-09T05:17:16;19.05;;;9.18;;
35675;SDS011;21790;42.668;23.298;2022-09-09T05:19:42;22.17;;;9.90;;
35675;SDS011;21790;42.668;23.298;2022-09-09T05:22:09;23.23;;;12.50;;
35675;SDS011;21790;42.668;23.298;2022-09-09T05:24:36;14.40;;;10.02;;
35675;SDS011;21790;42.668;23.298;2022-09-09T05:27:01;15.65;;;9.80;;
35675;SDS011;21790;42.668;23.298;2022-09-09T05:29:27;20.42;;;10.18;;
35675;SDS011;21790;42.668;23.298;2022-09-09T05:31:53;23.13;;;12.15;;
35675;SDS011;21790;42.668;23.298;2022-09-09T05:34:19;15.07;;;9.77;;
35675;SDS011;21790;42.668;23.298;2022-09-09T05:36:45;17.48;;;9.48;;
35675;SDS011;21790;42.668;23.298;2022-09-09T05:39:11;36.47;;;9.32;;
35675;SDS011;21790;42.668;23.298;2022-09-09T05:41:37;44.17;;;10.10;;
35675;SDS011;21790;42.668;23.298;2022-09-09T05:44:03;16.33;;;8.57;;
35675;SDS011;21790;42.668;23.298;2022-09-09T05:46:31;19.33;;;9.82;;
35675;SDS011;21790;42.668;23.298;2022-09-09T05:48:57;13.60;;;8.50;;
35675;SDS011;21790;42.668;23.298;2022-09-09T05:51:24;13.23;;;9.15;;
35675;SDS011;21790;42.668;23.298;2022-09-09T05:53:51;12.02;;;8.32;;
35675;SDS011;21790;42.668;23.298;2022-09-09T05:56:18;13.07;;;9.00;;
35675;SDS011;21790;42.668;23.298;2022-09-09T05:58:47;27.10;;;9.85;;
35675;SDS011;21790;42.668;23.298;2022-09-09T06:01:18;28.77;;;10.93;;
35675;SDS011;21790;42.668;23.298;2022-09-09T06:03:45;16.50;;;9.10;;
35675;SDS011;21790;42.668;23.298;2022-09-09T06:06:22;17.42;;;9.05;;
35675;SDS011;21790;42.668;23.298;2022-09-09T06:08:51;18.50;;;9.02;;
35675;SDS011;21790;42.668;23.298;2022-09-09T06:11:19;13.82;;;7.80;;
35675;SDS011;21790;42.668;23.298;2022-09-09T06:13:46;16.08;;;8.27;;
35675;SDS011;21790;42.668;23.298;2022-09-09T06:16:13;16.15;;;7.82;;
35675;SDS011;21790;42.668;23.298;2022-09-09T06:18:41;14.55;;;7.35;;
35675;SDS011;21790;42.668;23.298;2022-09-09T06:21:09;14.68;;;8.02;;
35675;SDS011;21790;42.668;23.298;2022-09-09T06:23:40;13.88;;;7.28;;
35675;SDS011;21790;42.668;23.298;2022-09-09T06:26:15;16.05;;;7.10;;
35675;SDS011;21790;42.668;23.298;2022-09-09T06:28:49;14.63;;;7.90;;
35675;SDS011;21790;42.668;23.298;2022-09-09T06:31:18;43.25;;;10.75;;
35675;SDS011;21790;42.668;23.298;2022-09-09T06:33:48;25.08;;;9.52;;
35675;SDS011;21790;42.668;23.298;2022-09-09T06:36:16;20.98;;;8.35;;
35675;SDS011;21790;42.668;23.298;2022-09-09T06:38:43;25.55;;;9.35;;
35675;SDS011;21790;42.668;23.298;2022-09-09T06:41:09;42.45;;;11.65;;
35675;SDS011;21790;42.668;23.298;2022-09-09T06:43:36;9.52;;;6.70;;
35675;SDS011;21790;42.668;23.298;2022-09-09T06:46:02;12.98;;;7.57;;
35675;SDS011;21790;42.668;23.298;2022-09-09T06:48:34;28.80;;;6.97;;
35675;SDS011;21790;42.668;23.298;2022-09-09T06:51:05;79.30;;;13.13;;
35675;SDS011;21790;42.668;23.298;2022-09-09T06:53:31;12.10;;;7.63;;
35675;SDS011;21790;42.668;23.298;2022-09-09T06:56:02;19.92;;;7.38;;
35675;SDS011;21790;42.668;23.298;2022-09-09T06:58:42;13.98;;;7.20;;
35675;SDS011;21790;42.668;23.298;2022-09-09T07:01:12;61.85;;;12.73;;
35675;SDS011;21790;42.668;23.298;2022-09-09T07:03:39;23.10;;;7.75;;
35675;SDS011;21790;42.668;23.298;2022-09-09T07:06:06;15.32;;;6.68;;
35675;SDS011;21790;42.668;23.298;2022-09-09T07:08:32;20.67;;;7.55;;
35675;SDS011;21790;42.668;23.298;2022-09-09T07:11:05;15.18;;;7.00;;
35675;SDS011;21790;42.668;23.298;2022-09-09T07:13:32;12.20;;;7.28;;
35675;SDS011;21790;42.668;23.298;2022-09-09T07:16:05;19.13;;;7.28;;
35675;SDS011;21790;42.668;23.298;2022-09-09T07:18:32;20.45;;;8.13;;
35675;SDS011;21790;42.668;23.298;2022-09-09T07:20:58;23.63;;;7.68;;
35675;SDS011;21790;42.668;23.298;2022-09-09T07:23:24;20.45;;;7.70;;
35675;SDS011;21790;42.668;23.298;2022-09-09T07:25:51;20.30;;;7.55;;
35675;SDS011;21790;42.668;23.298;2022-09-09T07:28:18;18.05;;;7.38;;
35675;SDS011;21790;42.668;23.298;2022-09-09T07:30:52;7.50;;;5.93;;
35675;SDS011;21790;42.668;23.298;2022-09-09T07:33:30;7.95;;;5.70;;
35675;SDS011;21790;42.668;23.298;2022-09-09T07:36:10;11.13;;;6.20;;
35675;SDS011;21790;42.668;23.298;2022-09-09T07:38:44;19.88;;;7.50;;
35675;SDS011;21790;42.668;23.298;2022-09-09T07:41:12;15.95;;;8.05;;
35675;SDS011;21790;42.668;23.298;2022-09-09T07:43:40;16.90;;;7.70;;
35675;SDS011;21790;42.668;23.298;2022-09-09T07:46:07;19.38;;;6.78;;
35675;SDS011;21790;42.668;23.298;2022-09-09T07:48:33;10.98;;;6.55;;
35675;SDS011;21790;42.668;23.298;2022-09-09T07:51:06;14.93;;;7.47;;
35675;SDS011;21790;42.668;23.298;2022-09-09T07:53:40;16.60;;;8.90;;
35675;SDS011;21790;42.668;23.298;2022-09-09T07:56:06;14.13;;;6.85;;
35675;SDS011;21790;42.668;23.298;2022-09-09T07:58:35;10.77;;;6.22;;
35675;SDS011;21790;42.668;23.298;2022-09-09T08:01:13;13.95;;;6.38;;
35675;SDS011;21790;42.668;23.298;2022-09-09T08:03:43;14.13;;;6.70;;
35675;SDS011;21790;42.668;23.298;2022-09-09T08:06:31;11.45;;;5.85;;
35675;SDS011;21790;42.668;23.298;2022-09-09T08:09:00;12.50;;;6.45;;
35675;SDS011;21790;42.668;23.298;2022-09-09T08:11:27;9.80;;;5.70;;
35675;SDS011;21790;42.668;23.298;2022-09-09T08:13:54;11.52;;;5.75;;
35675;SDS011;21790;42.668;23.298;2022-09-09T08:16:24;9.05;;;5.25;;
35675;SDS011;21790;42.668;23.298;2022-09-09T08:18:52;10.15;;;5.18;;
35675;SDS011;21790;42.668;23.298;2022-09-09T08:21:20;8.77;;;6.30;;
35675;SDS011;21790;42.668;23.298;2022-09-09T08:23:49;16.85;;;5.35;;
35675;SDS011;21790;42.668;23.298;2022-09-09T08:26:21;8.52;;;5.55;;
35675;SDS011;21790;42.668;23.298;2022-09-09T08:28:49;13.30;;;5.68;;
35675;SDS011;21790;42.668;23.298;2022-09-09T08:33:48;8.75;;;5.10;;
35675;SDS011;21790;42.668;23.298;2022-09-09T08:36:16;8.05;;;4.80;;
35675;SDS011;21790;42.668;23.298;2022-09-09T08:38:47;11.77;;;5.30;;
35675;SDS011;21790;42.668;23.298;2022-09-09T08:43:50;10.88;;;5.03;;
35675;SDS011;21790;42.668;23.298;2022-09-09T08:52:04;6.72;;;4.70;;
35675;SDS011;21790;42.668;23.298;2022-09-09T08:54:41;8.63;;;4.53;;
35675;SDS011;21790;42.668;23.298;2022-09-09T08:57:11;6.13;;;4.38;;
35675;SDS011;21790;42.668;23.298;2022-09-09T08:59:45;7.85;;;5.22;;
35675;SDS011;21790;42.668;23.298;2022-09-09T09:05:18;12.55;;;4.75;;
35675;SDS011;21790;42.668;23.298;2022-09-09T09:10:56;7.70;;;4.88;;
35675;SDS011;21790;42.668;23.298;2022-09-09T09:16:32;6.95;;;5.03;;
35675;SDS011;21790;42.668;23.298;2022-09-09T09:19:10;8.32;;;4.88;;
35675;SDS011;21790;42.668;23.298;2022-09-09T09:21:59;9.93;;;5.33;;
35675;SDS011;21790;42.668;23.298;2022-09-09T09:24:45;5.93;;;4.32;;
35675;SDS011;21790;42.668;23.298;2022-09-09T09:27:33;7.60;;;4.43;;
35675;SDS011;21790;42.668;23.298;2022-09-09T09:30:22;9.07;;;4.85;;
35675;SDS011;21790;42.668;23.298;2022-09-09T09:32:55;9.57;;;4.70;;
35675;SDS011;21790;42.668;23.298;2022-09-09T09:35:24;7.53;;;5.20;;
35675;SDS011;21790;42.668;23.298;2022-09-09T09:37:50;10.05;;;4.10;;
35675;SDS011;21790;42.668;23.298;2022-09-09T09:40:20;8.75;;;4.80;;
35675;SDS011;21790;42.668;23.298;2022-09-09T09:42:48;10.55;;;4.65;;
35675;SDS011;21790;42.668;23.298;2022-09-09T09:45:26;7.32;;;4.35;;
35675;SDS011;21790;42.668;23.298;2022-09-09T09:47:58;11.30;;;4.63;;
35675;SDS011;21790;42.668;23.298;2022-09-09T09:50:30;7.95;;;4.50;;
35675;SDS011;21790;42.668;23.298;2022-09-09T09:52:57;8.13;;;4.70;;
35675;SDS011;21790;42.668;23.298;2022-09-09T09:55:26;13.73;;;5.00;;
35675;SDS011;21790;42.668;23.298;2022-09-09T09:58:00;8.27;;;5.43;;
35675;SDS011;21790;42.668;23.298;2022-09-09T10:00:27;7.03;;;4.85;;
35675;SDS011;21790;42.668;23.298;2022-09-09T10:02:52;11.98;;;4.60;;
35675;SDS011;21790;42.668;23.298;2022-09-09T10:08:01;10.98;;;5.95;;
35675;SDS011;21790;42.668;23.298;2022-09-09T10:19:45;11.90;;;5.28;;
35675;SDS011;21790;42.668;23.298;2022-09-09T10:24:38;13.82;;;5.18;;
35675;SDS011;21790;42.668;23.298;2022-09-09T10:27:23;7.20;;;5.53;;
35675;SDS011;21790;42.668;23.298;2022-09-09T10:30:18;10.52;;;5.00;;
35675;SDS011;21790;42.668;23.298;2022-09-09T10:35:50;11.57;;;5.93;;
35675;SDS011;21790;42.668;23.298;2022-09-09T10:38:13;11.80;;;6.20;;
35675;SDS011;21790;42.668;23.298;2022-09-09T10:51:36;10.55;;;5.13;;
35675;SDS011;21790;42.668;23.298;2022-09-09T10:56:39;12.60;;;5.15;;
35675;SDS011;21790;42.668;23.298;2022-09-09T10:59:12;14.00;;;5.18;;
35675;SDS011;21790;42.668;23.298;2022-09-09T11:01:44;9.55;;;5.35;;
35675;SDS011;21790;42.668;23.298;2022-09-09T11:04:20;15.27;;;6.03;;
35675;SDS011;21790;42.668;23.298;2022-09-09T11:06:50;17.73;;;6.35;;
35675;SDS011;21790;42.668;23.298;2022-09-09T11:09:20;14.02;;;6.65;;
35675;SDS011;21790;42.668;23.298;2022-09-09T11:11:53;11.05;;;6.15;;
35675;SDS011;21790;42.668;23.298;2022-09-09T11:14:29;10.38;;;6.30;;
35675;SDS011;21790;42.668;23.298;2022-09-09T11:17:00;20.23;;;7.57;;
35675;SDS011;21790;42.668;23.298;2022-09-09T11:22:26;16.02;;;6.85;;
35675;SDS011;21790;42.668;23.298;2022-09-09T11:39:02;16.23;;;7.05;;
35675;SDS011;21790;42.668;23.298;2022-09-09T11:41:35;16.25;;;6.72;;
35675;SDS011;21790;42.668;23.298;2022-09-09T11:44:09;13.10;;;6.80;;
35675;SDS011;21790;42.668;23.298;2022-09-09T11:46:38;16.15;;;6.63;;
35675;SDS011;21790;42.668;23.298;2022-09-09T11:49:06;14.25;;;6.45;;
35675;SDS011;21790;42.668;23.298;2022-09-09T11:52:10;13.68;;;6.30;;
35675;SDS011;21790;42.668;23.298;2022-09-09T11:54:47;15.23;;;7.30;;
35675;SDS011;21790;42.668;23.298;2022-09-09T11:57:33;9.18;;;6.22;;
35675;SDS011;21790;42.668;23.298;2022-09-09T12:00:01;14.30;;;6.25;;
35675;SDS011;21790;42.668;23.298;2022-09-09T12:02:29;14.75;;;6.40;;
35675;SDS011;21790;42.668;23.298;2022-09-09T12:05:07;14.43;;;6.75;;
35675;SDS011;21790;42.668;23.298;2022-09-09T12:07:51;12.43;;;6.43;;
35675;SDS011;21790;42.668;23.298;2022-09-09T12:10:29;12.80;;;7.63;;
35675;SDS011;21790;42.668;23.298;2022-09-09T12:13:18;12.00;;;6.88;;
35675;SDS011;21790;42.668;23.298;2022-09-09T12:15:56;13.75;;;5.97;;
35675;SDS011;21790;42.668;23.298;2022-09-09T12:18:32;12.45;;;6.30;;
35675;SDS011;21790;42.668;23.298;2022-09-09T12:23:59;12.30;;;7.03;;
35675;SDS011;21790;42.668;23.298;2022-09-09T12:26:38;14.15;;;6.50;;
35675;SDS011;21790;42.668;23.298;2022-09-09T12:31:44;9.43;;;6.03;;
35675;SDS011;21790;42.668;23.298;2022-09-09T12:40:21;13.68;;;5.75;;
35675;SDS011;21790;42.668;23.298;2022-09-09T12:42:49;14.05;;;6.45;;
35675;SDS011;21790;42.668;23.298;2022-09-09T12:45:42;21.05;;;7.43;;
35675;SDS011;21790;42.668;23.298;2022-09-09T12:48:09;12.77;;;6.63;;
35675;SDS011;21790;42.668;23.298;2022-09-09T12:50:38;10.82;;;6.85;;
35675;SDS011;21790;42.668;23.298;2022-09-09T12:53:56;12.95;;;6.80;;
35675;SDS011;21790;42.668;23.298;2022-09-09T12:58:52;13.35;;;6.60;;
35675;SDS011;21790;42.668;23.298;2022-09-09T13:04:01;17.00;;;7.33;;
35675;SDS011;21790;42.668;23.298;2022-09-09T13:06:29;14.02;;;6.72;;
35675;SDS011;21790;42.668;23.298;2022-09-09T13:09:01;21.65;;;6.38;;
35675;SDS011;21790;42.668;23.298;2022-09-09T13:11:41;10.65;;;5.88;;
35675;SDS011;21790;42.668;23.298;2022-09-09T13:14:14;13.25;;;6.32;;
35675;SDS011;21790;42.668;23.298;2022-09-09T13:16:53;15.32;;;5.82;;
35675;SDS011;21790;42.668;23.298;2022-09-09T13:19:21;9.73;;;5.68;;
35675;SDS011;21790;42.668;23.298;2022-09-09T13:21:47;12.55;;;4.82;;
35675;SDS011;21790;42.668;23.298;2022-09-09T13:24:27;7.95;;;5.60;;
35675;SDS011;21790;42.668;23.298;2022-09-09T13:26:58;15.43;;;7.10;;
35675;SDS011;21790;42.668;23.298;2022-09-09T13:29:29;18.35;;;8.00;;
35675;SDS011;21790;42.668;23.298;2022-09-09T13:32:06;9.38;;;6.75;;
35675;SDS011;21790;42.668;23.298;2022-09-09T13:34:53;9.68;;;5.80;;
35675;SDS011;21790;42.668;23.298;2022-09-09T13:37:32;9.25;;;5.60;;
35675;SDS011;21790;42.668;23.298;2022-09-09T13:40:06;18.30;;;6.55;;
35675;SDS011;21790;42.668;23.298;2022-09-09T13:42:46;18.67;;;6.65;;
35675;SDS011;21790;42.668;23.298;2022-09-09T13:45:17;10.85;;;5.60;;
35675;SDS011;21790;42.668;23.298;2022-09-09T13:47:47;10.15;;;6.32;;
35675;SDS011;21790;42.668;23.298;2022-09-09T13:50:27;14.23;;;6.90;;
35675;SDS011;21790;42.668;23.298;2022-09-09T13:52:55;16.98;;;7.00;;
35675;SDS011;21790;42.668;23.298;2022-09-09T13:55:23;9.57;;;6.18;;
35675;SDS011;21790;42.668;23.298;2022-09-09T13:57:52;17.40;;;7.15;;
35675;SDS011;21790;42.668;23.298;2022-09-09T14:00:17;17.77;;;7.18;;
35675;SDS011;21790;42.668;23.298;2022-09-09T14:02:43;14.25;;;5.38;;
35675;SDS011;21790;42.668;23.298;2022-09-09T14:05:09;13.57;;;6.03;;
35675;SDS011;21790;42.668;23.298;2022-09-09T14:07:36;19.00;;;6.78;;
35675;SDS011;21790;42.668;23.298;2022-09-09T14:10:05;8.93;;;6.05;;
35675;SDS011;21790;42.668;23.298;2022-09-09T14:12:31;10.63;;;5.40;;
35675;SDS011;21790;42.668;23.298;2022-09-09T14:14:57;10.45;;;5.88;;
35675;SDS011;21790;42.668;23.298;2022-09-09T14:17:22;16.05;;;5.93;;
35675;SDS011;21790;42.668;23.298;2022-09-09T14:19:49;14.27;;;6.15;;
35675;SDS011;21790;42.668;23.298;2022-09-09T14:22:15;11.05;;;6.05;;
35675;SDS011;21790;42.668;23.298;2022-09-09T14:24:41;20.83;;;6.65;;
35675;SDS011;21790;42.668;23.298;2022-09-09T14:27:06;7.50;;;5.88;;
35675;SDS011;21790;42.668;23.298;2022-09-09T14:29:32;9.18;;;6.20;;
35675;SDS011;21790;42.668;23.298;2022-09-09T14:31:58;16.45;;;6.97;;
35675;SDS011;21790;42.668;23.298;2022-09-09T14:34:26;10.93;;;5.97;;
35675;SDS011;21790;42.668;23.298;2022-09-09T14:36:51;11.68;;;6.82;;
35675;SDS011;21790;42.668;23.298;2022-09-09T14:39:17;20.10;;;6.63;;
35675;SDS011;21790;42.668;23.298;2022-09-09T14:41:43;14.75;;;6.53;;
35675;SDS011;21790;42.668;23.298;2022-09-09T14:44:08;11.68;;;6.25;;
35675;SDS011;21790;42.668;23.298;2022-09-09T14:46:34;11.70;;;6.03;;
35675;SDS011;21790;42.668;23.298;2022-09-09T14:48:59;13.77;;;6.30;;
35675;SDS011;21790;42.668;23.298;2022-09-09T14:51:25;10.18;;;5.85;;
35675;SDS011;21790;42.668;23.298;2022-09-09T14:53:56;12.38;;;5.75;;
35675;SDS011;21790;42.668;23.298;2022-09-09T14:56:27;11.88;;;6.07;;
35675;SDS011;21790;42.668;23.298;2022-09-09T14:58:55;12.55;;;5.95;;
35675;SDS011;21790;42.668;23.298;2022-09-09T15:01:22;14.20;;;6.32;;
35675;SDS011;21790;42.668;23.298;2022-09-09T15:03:49;16.70;;;6.03;;
35675;SDS011;21790;42.668;23.298;2022-09-09T15:06:17;14.20;;;6.35;;
35675;SDS011;21790;42.668;23.298;2022-09-09T15:08:44;13.07;;;6.70;;
35675;SDS011;21790;42.668;23.298;2022-09-09T15:11:10;17.00;;;6.90;;
35675;SDS011;21790;42.668;23.298;2022-09-09T15:13:37;16.58;;;5.80;;
35675;SDS011;21790;42.668;23.298;2022-09-09T15:16:07;10.68;;;6.25;;
35675;SDS011;21790;42.668;23.298;2022-09-09T15:18:43;14.52;;;6.93;;
35675;SDS011;21790;42.668;23.298;2022-09-09T15:21:14;16.10;;;7.00;;
35675;SDS011;21790;42.668;23.298;2022-09-09T15:23:46;17.63;;;7.05;;
35675;SDS011;21790;42.668;23.298;2022-09-09T15:26:13;17.80;;;7.18;;
35675;SDS011;21790;42.668;23.298;2022-09-09T15:28:40;18.70;;;6.75;;
35675;SDS011;21790;42.668;23.298;2022-09-09T15:31:07;18.80;;;8.07;;
35675;SDS011;21790;42.668;23.298;2022-09-09T15:33:49;10.60;;;7.05;;
35675;SDS011;21790;42.668;23.298;2022-09-09T15:36:19;17.58;;;6.53;;
35675;SDS011;21790;42.668;23.298;2022-09-09T15:38:49;14.25;;;6.85;;
35675;SDS011;21790;42.668;23.298;2022-09-09T15:41:16;11.65;;;7.00;;
35675;SDS011;21790;42.668;23.298;2022-09-09T15:43:47;13.05;;;6.85;;
35675;SDS011;21790;42.668;23.298;2022-09-09T15:48:46;16.83;;;7.57;;
35675;SDS011;21790;42.668;23.298;2022-09-09T15:51:13;17.85;;;7.95;;
35675;SDS011;21790;42.668;23.298;2022-09-09T15:53:39;19.45;;;6.70;;
35675;SDS011;21790;42.668;23.298;2022-09-09T15:56:05;11.52;;;6.32;;
35675;SDS011;21790;42.668;23.298;2022-09-09T15:58:34;16.00;;;7.13;;
35675;SDS011;21790;42.668;23.298;2022-09-09T16:01:09;17.52;;;7.72;;
35675;SDS011;21790;42.668;23.298;2022-09-09T16:03:40;14.35;;;7.88;;
35675;SDS011;21790;42.668;23.298;2022-09-09T16:06:07;15.13;;;7.15;;
35675;SDS011;21790;42.668;23.298;2022-09-09T16:08:34;20.30;;;7.68;;
35675;SDS011;21790;42.668;23.298;2022-09-09T16:11:05;12.65;;;6.80;;
35675;SDS011;21790;42.668;23.298;2022-09-09T16:13:34;15.95;;;6.82;;
35675;SDS011;21790;42.668;23.298;2022-09-09T16:16:03;11.95;;;6.50;;
35675;SDS011;21790;42.668;23.298;2022-09-09T16:18:33;14.52;;;7.03;;
35675;SDS011;21790;42.668;23.298;2022-09-09T16:21:04;22.35;;;7.95;;
35675;SDS011;21790;42.668;23.298;2022-09-09T16:23:33;23.60;;;9.65;;
35675;SDS011;21790;42.668;23.298;2022-09-09T16:25:59;13.30;;;6.88;;
35675;SDS011;21790;42.668;23.298;2022-09-09T16:28:26;21.73;;;7.75;;
35675;SDS011;21790;42.668;23.298;2022-09-09T16:30:52;19.42;;;7.70;;
35675;SDS011;21790;42.668;23.298;2022-09-09T16:33:18;13.23;;;7.32;;
35675;SDS011;21790;42.668;23.298;2022-09-09T16:35:44;18.77;;;9.15;;
35675;SDS011;21790;42.668;23.298;2022-09-09T16:38:10;15.35;;;8.02;;
35675;SDS011;21790;42.668;23.298;2022-09-09T16:40:37;15.93;;;7.65;;
35675;SDS011;21790;42.668;23.298;2022-09-09T16:43:03;12.38;;;7.43;;
35675;SDS011;21790;42.668;23.298;2022-09-09T16:45:30;18.38;;;7.53;;
35675;SDS011;21790;42.668;23.298;2022-09-09T16:47:57;26.05;;;8.23;;
35675;SDS011;21790;42.668;23.298;2022-09-09T16:50:23;23.02;;;9.38;;
35675;SDS011;21790;42.668;23.298;2022-09-09T16:52:50;22.35;;;8.57;;